Pagrindinis puslapis
METAR-TAF:

METAR-TAF

Oro uostai :

Kaltag, Aliaska, Jungtinės Amerikos Valstijos

platuma: 64-19N, ilguma: 158-44W, Aukštis: 54 m

Dabartinis oras

Ataskaita buvo paskelbta 58 minutes, ne 22:53 UTC
Vėjas 7 kt iš Vakarų/Pietvakarių
Temperatūra 17°C
Drėgmė 48%
Slėgis 1016 hPa
Matomumas: 16.1 km
Su prošvaistėmis ne aukštis 5000 ft

METAR: PAKV 052253Z AUTO 24007KT 10SM BKN050 17/06 A2999 RMK SLP156 T01670056 TSNO VIA AUTODIAL

Laikas: 15:51 (23:51 UTC)


TAF: trūkstamas

Orai ataskaitas ir orų prognozės (METAR, TAF).

turimą stotys yra geltonos ir raudonos taškus žemėlapyje.

Perkelti pele per norėdami pamatyti stoties vardą.

Tada spustelėkite, norėdami matyti oro stebėjimo ir prognozės.

Norėdami pakeisti žemėlapį: spustelėkite ant žalios mygtukų su juodo kryžiaus žemyn,; žalią mygtuką su brūkšneliu, jei norite nutolinti; arba žalių rodyklių gretimoms žemėlapius.


METAR-TAF: